Time;durP1;ratioP1;P1;durP2;ratioP2;P2;SDS_P1;SDS_P2;PMS_P1;PMS_P2;Temp;Humidity;BMP_temperature;BMP_pressure;BME280_temperature;BME280_humidity;BME280_pressure;Samples;Min_cycle;Max_cycle;Signal;HPM_P1;HPM_P2
2022/10/17 00:01:59;;;;;;;4.77;1.80;;;17.70;99.90;;;;;;6246405;23;20148;-86
2022/10/17 00:04:25;;;;;;;8.87;2.20;;;17.60;99.90;;;;;;6242983;23;20514;-86
2022/10/17 00:06:50;;;;;;;3.70;2.40;;;17.60;99.90;;;;;;6243723;23;20179;-86
2022/10/17 00:09:16;;;;;;;2.40;1.97;;;17.50;99.90;;;;;;6245711;23;20145;-86
2022/10/17 00:11:41;;;;;;;3.30;2.47;;;17.50;99.90;;;;;;6245724;23;20149;-88
2022/10/17 00:14:07;;;;;;;3.03;2.00;;;17.30;99.90;;;;;;6247554;23;20148;-89
2022/10/17 00:16:36;;;;;;;8.00;2.20;;;17.20;99.90;;;;;;6247503;23;20161;-88
2022/10/17 00:19:03;;;;;;;3.60;2.17;;;17.20;99.90;;;;;;6245124;22;20263;-87
2022/10/17 00:21:29;;;;;;;5.47;2.70;;;17.10;99.90;;;;;;6243714;23;20517;-88
2022/10/17 00:23:54;;;;;;;5.53;1.90;;;17.00;99.90;;;;;;6243323;23;20431;-88
2022/10/17 00:26:20;;;;;;;9.93;2.90;;;17.00;99.90;;;;;;6238167;23;20191;-89
2022/10/17 00:28:47;;;;;;;5.93;2.63;;;17.00;99.90;;;;;;6245763;22;20156;-87
2022/10/17 00:31:13;;;;;;;4.67;2.60;;;17.10;99.90;;;;;;6244603;23;20391;-89
2022/10/17 00:33:38;;;;;;;3.03;1.87;;;18.10;99.90;;;;;;6243668;23;20437;-88
2022/10/17 00:36:08;;;;;;;5.23;1.87;;;17.00;99.90;;;;;;6242256;23;20256;-87
2022/10/17 00:38:34;;;;;;;3.60;2.17;;;17.00;99.90;;;;;;6243918;23;20202;-87
2022/10/17 00:41:00;;;;;;;3.20;2.00;;;17.00;99.90;;;;;;6241656;23;20460;-88
2022/10/17 00:43:26;;;;;;;3.50;1.90;;;17.10;99.90;;;;;;6242133;23;20383;-89
2022/10/17 00:45:52;;;;;;;5.90;2.27;;;;;;;;;;6243329;23;20807;-88
2022/10/17 00:48:19;;;;;;;7.20;2.07;;;17.00;99.90;;;;;;6242753;23;20367;-87
2022/10/17 00:50:48;;;;;;;4.50;2.07;;;17.00;99.90;;;;;;6245430;23;20403;-88
2022/10/17 00:53:14;;;;;;;2.00;1.80;;;16.90;99.90;;;;;;6241277;23;20854;-89
2022/10/17 00:55:48;;;;;;;3.43;2.20;;;16.80;99.90;;;;;;6244333;23;20407;-88
2022/10/17 00:58:14;;;;;;;5.00;2.43;;;16.80;99.90;;;;;;6243997;23;20415;-88
2022/10/17 01:00:41;;;;;;;2.83;2.20;;;16.80;99.90;;;;;;6245960;22;21176;-88
2022/10/17 01:03:07;;;;;;;6.60;2.47;;;17.00;99.90;;;;;;6243576;23;20376;-88
2022/10/17 01:08:01;;;;;;;4.77;2.30;;;17.10;99.90;;;;;;6236761;23;20180;-88
2022/10/17 01:10:33;;;;;;;2.17;1.97;;;17.20;99.90;;;;;;6242883;22;20782;-88
2022/10/17 01:13:05;;;;;;;2.80;1.63;;;18.80;99.90;;;;;;6240192;23;20749;-89
2022/10/17 01:15:57;;;;;;;6.73;2.07;;;17.20;99.90;;;;;;6241676;23;20375;-87
2022/10/17 01:18:49;;;;;;;3.73;1.87;;;17.30;99.90;;;;;;6238156;23;20521;-89
2022/10/17 01:21:31;;;;;;;2.57;1.60;;;17.30;99.90;;;;;;6219289;23;20383;-89
2022/10/17 01:24:31;;;;;;;7.83;2.70;;;17.30;99.90;;;;;;6241906;23;20352;-89
2022/10/17 01:27:09;;;;;;;5.47;2.40;;;17.20;99.90;;;;;;6241018;22;20385;-88
2022/10/17 01:30:15;;;;;;;6.27;1.90;;;17.10;99.90;;;;;;6242213;22;20387;-88
2022/10/17 01:32:51;;;;;;;4.00;2.27;;;17.00;99.90;;;;;;6240055;23;20398;-89
2022/10/17 01:35:41;;;;;;;4.77;1.93;;;16.90;99.90;;;;;;6245678;22;20355;-89
2022/10/17 01:38:11;;;;;;;8.67;3.37;;;16.70;99.90;;;;;;6244422;23;20415;-89
2022/10/17 01:41:01;;;;;;;4.07;2.00;;;16.60;99.90;;;;;;6245218;23;20451;-89
2022/10/17 01:43:38;;;;;;;6.00;2.73;;;16.40;99.90;;;;;;6245332;22;20727;-89
2022/10/17 01:46:15;;;;;;;6.03;2.43;;;16.40;99.90;;;;;;6245818;23;20367;-88
2022/10/17 01:48:44;;;;;;;4.33;2.67;;;16.20;99.90;;;;;;6264744;22;20367;-90
2022/10/17 01:51:20;;;;;;;3.50;2.43;;;16.20;99.90;;;;;;6252630;22;20907;-88
2022/10/17 01:53:51;;;;;;;3.93;3.03;;;16.00;99.90;;;;;;6247225;23;20454;-89
2022/10/17 01:56:18;;;;;;;3.90;2.70;;;16.20;99.90;;;;;;6247788;22;20451;-89
2022/10/17 01:58:51;;;;;;;8.10;3.50;;;15.20;99.90;;;;;;6245756;23;20429;-89
2022/10/17 02:01:19;;;;;;;7.97;3.40;;;15.20;99.90;;;;;;6243339;23;20390;-88
2022/10/17 02:03:48;;;;;;;9.27;3.40;;;15.10;99.90;;;;;;6244685;22;20423;-89
2022/10/17 02:06:14;;;;;;;5.97;3.10;;;;;;;;;;6245467;22;20421;-89
2022/10/17 02:08:46;;;;;;;9.03;3.53;;;14.60;99.90;;;;;;6245841;23;20380;-89
2022/10/17 02:11:23;;;;;;;6.77;3.93;;;14.50;99.90;;;;;;6252337;23;20375;-89
2022/10/17 02:14:21;;;;;;;4.00;3.50;;;14.30;99.90;;;;;;6255621;23;20398;-89
2022/10/17 02:17:05;;;;;;;7.17;3.53;;;14.10;99.90;;;;;;6250375;22;20359;-89
2022/10/17 02:20:02;;;;;;;7.70;3.47;;;13.80;99.90;;;;;;6243035;23;20418;-89
2022/10/17 02:22:54;;;;;;;8.60;3.53;;;13.80;99.90;;;;;;6245475;23;20379;-89
2022/10/17 02:25:37;;;;;;;7.90;4.18;;;13.70;99.90;;;;;;6242948;22;20384;-88
2022/10/17 02:28:21;;;;;;;7.40;3.70;;;13.60;99.90;;;;;;6242839;23;20522;-89
2022/10/17 02:30:54;;;;;;;6.60;4.10;;;13.50;99.90;;;;;;6242995;23;20422;-89
2022/10/17 02:33:36;;;;;;;5.90;3.27;;;13.50;99.90;;;;;;6243413;23;20410;-89
2022/10/17 02:36:11;;;;;;;6.57;4.50;;;13.40;99.90;;;;;;6248119;22;20355;-89
2022/10/17 02:38:39;;;;;;;5.20;3.83;;;13.30;99.90;;;;;;6244556;23;20418;-88
2022/10/17 02:41:08;;;;;;;7.50;5.50;;;13.30;99.90;;;;;;6257426;22;20435;-88
2022/10/17 02:43:35;;;;;;;14.77;4.80;;;13.30;99.90;;;;;;6267040;22;20376;-89
2022/10/17 02:46:01;;;;;;;12.00;4.20;;;;;;;;;;6267864;22;20395;-89
2022/10/17 02:48:38;;;;;;;9.63;4.97;;;13.40;99.90;;;;;;6269181;22;20343;-90
2022/10/17 02:51:28;;;;;;;10.33;4.57;;;13.40;99.90;;;;;;6267164;22;20387;-91
2022/10/17 02:54:00;;;;;;;6.33;4.30;;;13.50;99.90;;;;;;6267799;22;20371;-90
2022/10/17 02:56:29;;;;;;;6.50;4.40;;;13.60;99.90;;;;;;6267948;23;20666;-88
2022/10/17 02:58:58;;;;;;;10.60;4.60;;;13.60;99.90;;;;;;6265247;22;20449;-89
2022/10/17 03:01:24;;;;;;;8.73;4.63;;;;;;;;;;6247981;23;20411;-89
2022/10/17 03:03:50;;;;;;;8.13;3.90;;;;;;;;;;6237969;23;20368;-89
2022/10/17 03:06:17;;;;;;;17.67;4.33;;;;;;;;;;6248337;23;20423;-88
2022/10/17 03:08:42;;;;;;;11.53;4.60;;;;;;;;;;6242717;23;20359;-89
2022/10/17 03:11:08;;;;;;;6.13;2.90;;;;;;;;;;6242560;23;20383;-89
2022/10/17 03:13:34;;;;;;;5.37;3.93;;;;;;;;;;6245650;23;20382;-89
2022/10/17 03:16:00;;;;;;;5.80;4.00;;;;;;;;;;6253393;23;20462;-89
2022/10/17 03:18:26;;;;;;;9.80;4.00;;;;;;;;;;6259681;22;20434;-90
2022/10/17 03:20:52;;;;;;;8.47;4.43;;;;;;;;;;6259820;23;20371;-91
2022/10/17 03:23:18;;;;;;;8.70;4.53;;;;;;;;;;6265344;23;20398;-88
2022/10/17 03:25:44;;;;;;;9.80;4.70;;;13.10;99.90;;;;;;6246155;23;20384;-89
2022/10/17 03:28:11;;;;;;;10.53;4.40;;;13.00;99.90;;;;;;6244304;23;20865;-88
2022/10/17 03:30:37;;;;;;;7.80;4.27;;;13.10;99.90;;;;;;6246680;23;20177;-89
2022/10/17 03:33:02;;;;;;;8.30;4.10;;;13.10;99.90;;;;;;6247129;23;20381;-88
2022/10/17 03:35:28;;;;;;;11.80;3.97;;;;;;;;;;6245254;23;20407;-88
2022/10/17 03:37:55;;;;;;;9.50;3.83;;;12.80;99.90;;;;;;6244226;23;20532;-89
2022/10/17 03:40:21;;;;;;;8.90;4.20;;;;;;;;;;6244934;23;20498;-88
2022/10/17 03:42:47;;;;;;;16.33;3.70;;;;;;;;;;6241970;23;20387;-88
2022/10/17 03:45:12;;;;;;;6.57;3.20;;;12.80;99.90;;;;;;6245460;23;20374;-88
2022/10/17 03:47:38;;;;;;;10.63;3.40;;;;;;;;;;6246286;23;20371;-88
2022/10/17 03:50:04;;;;;;;21.77;4.37;;;;;;;;;;6241821;23;20180;-87
2022/10/17 03:52:30;;;;;;;14.27;3.87;;;12.90;99.90;;;;;;6247029;23;20850;-88
2022/10/17 03:54:56;;;;;;;10.60;5.13;;;;;;;;;;6245648;23;20414;-88
2022/10/17 03:57:22;;;;;;;5.83;4.07;;;;;;;;;;6243647;23;20148;-88
2022/10/17 03:59:50;;;;;;;11.50;4.40;;;13.00;99.90;;;;;;6244071;23;20423;-88
2022/10/17 04:02:16;;;;;;;15.00;3.70;;;;;;;;;;6241909;23;20603;-87
2022/10/17 04:04:41;;;;;;;11.80;3.43;;;;;;;;;;6243903;23;20864;-89
2022/10/17 04:07:07;;;;;;;8.30;4.27;;;;;;;;;;6246067;23;20387;-90
2022/10/17 04:09:33;;;;;;;11.30;4.10;;;;;;;;;;6244390;23;20466;-90
2022/10/17 04:11:59;;;;;;;12.17;4.60;;;;;;;;;;6246045;23;20371;-90
2022/10/17 04:14:25;;;;;;;8.60;4.63;;;;;;;;;;6246147;23;20426;-90
2022/10/17 04:16:52;;;;;;;7.20;5.10;;;12.90;99.90;;;;;;6245852;23;20363;-92
2022/10/17 04:19:18;;;;;;;10.25;5.10;;;;;;;;;;6245059;22;20431;-90
2022/10/17 04:21:44;;;;;;;14.23;3.93;;;;;;;;;;6247363;23;20164;-91
2022/10/17 04:24:11;;;;;;;15.73;4.53;;;12.70;99.90;;;;;;6246265;23;20379;-90
2022/10/17 04:26:36;;;;;;;11.95;4.57;;;15.30;99.90;;;;;;6245922;22;20826;-92
2022/10/17 04:39:38;;;;;;;11.67;5.60;;;;;;;;;;6276319;22;2460554;-87
2022/10/17 04:42:04;;;;;;;6.30;4.60;;;12.30;99.90;;;;;;6380745;22;20130;-86
2022/10/17 04:44:32;;;;;;;9.50;4.10;;;;;;;;;;6380348;22;20371;-88
2022/10/17 04:46:57;;;;;;;9.35;5.93;;;12.30;99.90;;;;;;6354985;22;20262;-85
2022/10/17 04:49:23;;;;;;;10.70;6.70;;;12.30;99.90;;;;;;6346578;22;20134;-85
2022/10/17 04:51:49;;;;;;;11.27;5.70;;;;;;;;;;6345777;22;20935;-84
2022/10/17 04:54:14;;;;;;;11.57;5.40;;;12.40;99.90;;;;;;6346052;22;20146;-86
2022/10/17 04:56:40;;;;;;;15.13;6.30;;;12.40;99.90;;;;;;6347065;22;20425;-87
2022/10/17 04:59:06;;;;;;;14.00;6.60;;;12.40;99.90;;;;;;6348770;22;20228;-86
2022/10/17 05:01:31;;;;;;;9.30;6.57;;;;;;;;;;6348612;22;20164;-85
2022/10/17 05:03:57;;;;;;;11.43;6.43;;;12.40;99.90;;;;;;6349962;22;20177;-86
2022/10/17 05:06:27;;;;;;;14.00;7.50;;;12.40;99.90;;;;;;6349636;22;20934;-86
2022/10/17 05:08:52;;;;;;;11.38;7.20;;;;;;;;;;6350611;22;20177;-84
2022/10/17 05:11:27;;;;;;;12.67;8.13;;;12.40;99.90;;;;;;6350972;22;20216;-84
2022/10/17 05:13:57;;;;;;;16.70;7.80;;;12.40;99.90;;;;;;6347925;22;20372;-85
2022/10/17 05:16:24;;;;;;;13.80;7.93;;;12.30;99.90;;;;;;6348605;22;20403;-86
2022/10/17 05:18:52;;;;;;;16.35;7.55;;;12.20;99.90;;;;;;6349307;22;20283;-85
2022/10/17 05:21:18;;;;;;;13.23;7.55;;;12.10;99.90;;;;;;6348774;22;20576;-83
2022/10/17 05:23:44;;;;;;;11.77;7.50;;;;;;;;;;6349257;22;20668;-86
2022/10/17 05:26:10;;;;;;;15.70;9.43;;;12.20;99.90;;;;;;6347738;22;20469;-86
2022/10/17 05:28:35;;;;;;;12.25;7.63;;;12.20;99.90;;;;;;6346856;22;20412;-86
2022/10/17 05:31:06;;;;;;;15.20;8.93;;;12.10;99.90;;;;;;6349634;22;20171;-84
2022/10/17 05:33:32;;;;;;;13.27;7.88;;;12.10;99.90;;;;;;6350533;22;20126;-86
2022/10/17 05:35:57;;;;;;;18.03;8.50;;;12.20;99.90;;;;;;6348810;22;20491;-85
2022/10/17 05:38:23;;;;;;;10.20;7.17;;;;;;;;;;6346888;22;20392;-86
2022/10/17 05:40:49;;;;;;;23.63;7.50;;;;;;;;;;6336444;22;20159;-85
2022/10/17 05:43:16;;;;;;;12.83;7.30;;;;;;;;;;6339180;22;20399;-86
2022/10/17 05:45:41;;;;;;;11.77;7.60;;;12.20;99.90;;;;;;6342126;22;20409;-86
2022/10/17 05:48:08;;;;;;;15.23;8.23;;;;;;;;;;6339005;22;20419;-85
2022/10/17 05:50:34;;;;;;;18.08;7.43;;;12.30;99.90;;;;;;6342267;22;20169;-84
2022/10/17 05:53:00;;;;;;;18.67;7.90;;;;;;;;;;6340005;22;20150;-86
2022/10/17 05:55:26;;;;;;;12.70;6.60;;;;;;;;;;6340223;22;20444;-85
2022/10/17 05:57:52;;;;;;;14.73;7.53;;;;;;;;;;6340931;22;21049;-85
2022/10/17 06:00:19;;;;;;;14.38;7.07;;;12.30;99.90;;;;;;6341607;22;20383;-83
2022/10/17 06:02:46;;;;;;;13.40;7.50;;;12.40;99.90;;;;;;6340060;22;20166;-86
2022/10/17 06:05:12;;;;;;;19.83;6.60;;;12.40;99.90;;;;;;6342155;22;20376;-87
2022/10/17 06:07:38;;;;;;;12.87;7.83;;;;;;;;;;6343431;22;21188;-87
2022/10/17 06:10:04;;;;;;;18.43;9.80;;;12.30;99.90;;;;;;6342217;22;20384;-87
2022/10/17 06:12:30;;;;;;;16.92;8.57;;;;;;;;;;6342342;22;20761;-84
2022/10/17 06:14:56;;;;;;;18.13;10.10;;;;;;;;;;6342903;22;20153;-86
2022/10/17 06:17:22;;;;;;;19.60;9.97;;;12.50;99.90;;;;;;6342510;22;20412;-85
2022/10/17 06:19:47;;;;;;;19.13;9.47;;;12.60;99.90;;;;;;6342056;22;20376;-87
2022/10/17 06:22:13;;;;;;;20.90;7.97;;;;;;;;;;6342086;22;20147;-83
2022/10/17 06:24:39;;;;;;;14.33;6.97;;;12.70;99.90;;;;;;6343276;22;20179;-85
2022/10/17 06:27:05;;;;;;;13.93;7.60;;;;;;;;;;6339757;22;20424;-86
2022/10/17 06:29:30;;;;;;;15.13;9.67;;;12.90;99.90;;;;;;6342587;22;20138;-85
2022/10/17 06:31:56;;;;;;;18.00;9.20;;;;;;;;;;6339794;22;20426;-86
2022/10/17 06:34:22;;;;;;;10.13;7.87;;;;;;;;;;6341505;22;20191;-84
2022/10/17 06:36:48;;;;;;;11.63;6.43;;;14.60;99.90;;;;;;6341114;22;20442;-83
2022/10/17 06:39:14;;;;;;;12.40;4.67;;;14.90;99.90;;;;;;6341224;22;20400;-86
2022/10/17 06:41:40;;;;;;;10.63;5.17;;;;;;;;;;6342907;22;20165;-87
2022/10/17 06:44:10;;;;;;;9.40;5.10;;;;;;;;;;6340072;22;20377;-85
2022/10/17 06:46:36;;;;;;;13.83;5.77;;;;;;;;;;6342717;22;20393;-85
2022/10/17 06:49:03;;;;;;;8.00;5.10;;;18.40;99.90;;;;;;6342352;22;20404;-84
2022/10/17 06:51:29;;;;;;;5.77;4.53;;;;;;;;;;6340426;22;20373;-85
2022/10/17 06:53:56;;;;;;;7.10;4.93;;;22.10;99.90;;;;;;6341936;22;20452;-86
2022/10/17 06:56:22;;;;;;;7.83;4.50;;;;;;;;;;6342248;22;20466;-86
2022/10/17 06:58:50;;;;;;;10.23;4.83;;;;;;;;;;6343939;22;20835;-87
2022/10/17 07:01:16;;;;;;;10.73;5.17;;;;;;;;;;6341863;22;20437;-87
2022/10/17 07:03:42;;;;;;;10.90;5.13;;;;;;;;;;6336465;22;20837;-87
2022/10/17 07:06:10;;;;;;;9.73;5.77;;;;;;;;;;6323468;22;20484;-85
2022/10/17 07:08:36;;;;;;;6.73;4.93;;;;;;;;;;6248361;22;21181;-85
2022/10/17 07:11:09;;;;;;;5.80;4.70;;;26.60;99.90;;;;;;6280537;22;20372;-85
2022/10/17 07:13:35;;;;;;;9.20;5.33;;;;;;;;;;6280134;22;20390;-85
2022/10/17 07:16:01;;;;;;;11.50;4.90;;;;;;;;;;6279264;22;20496;-85
2022/10/17 07:18:27;;;;;;;6.83;4.37;;;;;;;;;;6275080;22;20452;-85
2022/10/17 07:20:53;;;;;;;6.33;4.87;;;26.00;99.90;;;;;;6251629;22;20385;-85
2022/10/17 07:23:19;;;;;;;13.70;5.23;;;25.20;99.90;;;;;;6251614;22;20409;-85
2022/10/17 07:25:45;;;;;;;5.90;4.93;;;;;;;;;;6246702;22;20408;-85
2022/10/17 07:28:11;;;;;;;8.80;4.97;;;;;;;;;;6276228;22;20236;-85
2022/10/17 07:30:37;;;;;;;13.40;4.80;;;;;;;;;;6252132;22;20881;-85
2022/10/17 07:33:03;;;;;;;7.63;4.33;;;;;;;;;;6278042;22;20368;-85
2022/10/17 07:35:29;;;;;;;8.90;4.30;;;;;;;;;;6279987;22;20359;-85
2022/10/17 07:37:54;;;;;;;9.50;4.60;;;26.30;99.90;;;;;;6279413;22;20368;-85
2022/10/17 07:40:20;;;;;;;8.43;4.90;;;27.00;99.90;;;;;;6279480;22;20405;-85
2022/10/17 07:42:45;;;;;;;9.60;4.67;;;27.30;99.90;;;;;;6278884;22;20190;-85
2022/10/17 07:45:11;;;;;;;9.87;5.10;;;;;;;;;;6253184;22;20609;-85
2022/10/17 07:47:37;;;;;;;10.40;5.70;;;;;;;;;;6251515;22;20273;-85
2022/10/17 07:50:04;;;;;;;4.70;3.83;;;;;;;;;;6253692;22;20377;-85
2022/10/17 07:52:30;;;;;;;11.53;4.70;;;;;;;;;;6251879;22;20405;-85
2022/10/17 07:54:56;;;;;;;8.10;3.80;;;;;;;;;;6253100;22;20380;-85
2022/10/17 07:57:22;;;;;;;4.73;4.33;;;;;;;;;;6252705;22;20898;-85
2022/10/17 07:59:49;;;;;;;10.17;5.00;;;;;;;;;;6252314;22;20410;-85
2022/10/17 08:02:22;;;;;;;8.13;4.70;;;28.60;99.90;;;;;;6278893;22;20425;-85
2022/10/17 08:04:48;;;;;;;13.03;5.70;;;;;;;;;;6279913;22;20374;-86
2022/10/17 08:07:15;;;;;;;6.57;4.50;;;27.40;99.90;;;;;;6270038;22;20954;-85
2022/10/17 08:09:41;;;;;;;8.20;4.70;;;27.10;99.90;;;;;;6278056;22;20370;-85
2022/10/17 08:12:07;;;;;;;6.40;5.03;;;;;;;;;;6277315;22;20457;-85
2022/10/17 08:14:33;;;;;;;21.10;5.73;;;27.20;99.90;;;;;;6275387;22;20420;-85
2022/10/17 08:16:59;;;;;;;9.77;4.83;;;;;;;;;;6277073;22;20704;-85
2022/10/17 08:19:25;;;;;;;4.53;3.90;;;;;;;;;;6271985;22;20152;-84
2022/10/17 08:21:53;;;;;;;9.20;4.40;;;;;;;;;;6276342;22;20412;-85
2022/10/17 08:24:19;;;;;;;8.20;4.90;;;;;;;;;;6278755;22;21101;-85
2022/10/17 08:26:45;;;;;;;7.83;4.90;;;;;;;;;;6273327;22;20382;-85
2022/10/17 08:29:14;;;;;;;8.17;3.87;;;25.80;99.90;;;;;;6279147;22;20593;-84
2022/10/17 08:31:40;;;;;;;8.60;3.90;;;24.80;99.90;;;;;;6277867;22;20384;-85
2022/10/17 08:34:06;;;;;;;13.60;5.60;;;;;;;;;;6274460;22;20376;-85
2022/10/17 08:36:32;;;;;;;13.23;5.00;;;24.60;99.90;;;;;;6277628;22;20167;-85
2022/10/17 08:38:58;;;;;;;8.50;5.00;;;;;;;;;;6278126;22;20446;-85
2022/10/17 08:42:05;;;;;;;4.77;4.23;;;24.80;99.90;;;;;;6277978;22;20149;-84
2022/10/17 08:44:54;;;;;;;6.57;3.83;;;25.00;99.90;;;;;;6276149;22;20388;-85
2022/10/17 08:47:34;;;;;;;7.70;4.60;;;26.80;99.90;;;;;;6278108;22;20438;-85
2022/10/17 08:50:02;;;;;;;5.87;3.77;;;27.50;99.90;;;;;;6278328;22;20348;-85
2022/10/17 08:52:55;;;;;;;6.30;3.57;;;28.20;99.90;;;;;;6275658;22;20397;-85
2022/10/17 08:55:31;;;;;;;9.20;3.77;;;28.00;99.90;;;;;;6275565;22;20378;-85
2022/10/17 08:57:56;;;;;;;7.70;3.10;;;28.20;99.90;;;;;;6274888;22;20366;-85
2022/10/17 09:00:23;;;;;;;4.30;3.10;;;28.20;99.90;;;;;;6277550;22;20419;-85
2022/10/17 09:03:11;;;;;;;9.47;3.00;;;28.50;99.90;;;;;;6274610;22;20162;-85
2022/10/17 09:05:51;;;;;;;3.27;2.30;;;27.50;99.90;;;;;;6277002;22;20358;-85
2022/10/17 09:08:40;;;;;;;4.67;2.77;;;27.20;99.90;;;;;;6248900;22;20832;-85
2022/10/17 09:11:22;;;;;;;4.60;3.10;;;26.30;99.90;;;;;;6242930;22;20829;-85
2022/10/17 09:13:48;;;;;;;4.10;3.03;;;;;;;;;;6277281;22;20429;-86
2022/10/17 09:16:51;;;;;;;4.33;3.93;;;26.00;99.90;;;;;;6277802;22;20462;-85
2022/10/17 09:19:28;;;;;;;8.77;3.50;;;26.00;99.90;;;;;;6248445;22;20448;-85
2022/10/17 09:21:54;;;;;;;10.03;3.87;;;;;;;;;;6251606;22;20458;-85
2022/10/17 09:24:30;;;;;;;9.33;3.70;;;27.40;99.90;;;;;;6252231;22;20424;-85
2022/10/17 09:26:55;;;;;;;6.07;3.40;;;27.80;99.90;;;;;;6274493;22;20399;-85
2022/10/17 09:29:23;;;;;;;8.83;2.70;;;28.60;99.90;;;;;;6251440;22;20377;-86
2022/10/17 09:32:21;;;;;;;8.70;3.60;;;29.10;99.90;;;;;;6279031;22;20763;-85
2022/10/17 09:34:47;;;;;;;4.40;2.70;;;;;;;;;;6278719;22;20787;-85
2022/10/17 09:37:15;;;;;;;8.07;3.27;;;30.60;99.60;;;;;;6278948;22;20382;-86
2022/10/17 09:39:42;;;;;;;4.87;2.50;;;30.10;96.00;;;;;;6277850;22;20370;-85
2022/10/17 09:42:21;;;;;;;3.13;2.80;;;29.50;98.10;;;;;;6278960;22;20371;-86
2022/10/17 09:45:01;;;;;;;4.07;2.50;;;28.30;98.90;;;;;;6279471;22;20462;-86
2022/10/17 09:47:40;;;;;;;6.30;2.07;;;27.40;99.90;;;;;;6250899;22;20886;-86
2022/10/17 09:50:20;;;;;;;9.87;4.13;;;26.70;99.90;;;;;;6279195;22;20358;-85
2022/10/17 09:52:48;;;;;;;3.00;2.23;;;26.30;99.90;;;;;;6252007;22;20456;-85
2022/10/17 09:55:40;;;;;;;2.60;1.97;;;26.20;99.90;;;;;;6279510;22;20373;-85
2022/10/17 09:58:07;;;;;;;4.70;1.73;;;25.80;99.90;;;;;;6278278;22;20401;-85
2022/10/17 10:00:41;;;;;;;2.50;2.13;;;25.20;99.90;;;;;;6278792;22;20432;-85
2022/10/17 10:03:23;;;;;;;6.47;2.50;;;24.90;99.90;;;;;;6250917;22;20381;-85
2022/10/17 10:06:04;;;;;;;6.40;2.30;;;24.80;99.90;;;;;;6280204;22;20420;-85
2022/10/17 10:08:35;;;;;;;4.87;2.67;;;23.90;99.90;;;;;;6279095;22;20408;-86
2022/10/17 10:11:07;;;;;;;4.73;2.27;;;24.10;99.90;;;;;;6253479;22;20368;-85
2022/10/17 10:13:33;;;;;;;4.67;2.60;;;23.60;99.90;;;;;;6278553;22;20359;-86
2022/10/17 10:16:31;;;;;;;7.50;2.40;;;23.50;99.90;;;;;;6252281;22;20459;-85
2022/10/17 10:18:57;;;;;;;8.20;2.77;;;23.20;99.90;;;;;;6277734;22;20454;-85
2022/10/17 10:21:25;;;;;;;11.30;2.77;;;23.10;99.90;;;;;;6251786;22;20444;-85
2022/10/17 10:24:05;;;;;;;4.40;2.43;;;22.90;99.90;;;;;;6250217;22;20234;-85
2022/10/17 10:26:33;;;;;;;9.33;2.53;;;22.90;99.90;;;;;;6243718;22;20410;-85
2022/10/17 10:29:03;;;;;;;5.07;2.60;;;23.20;99.90;;;;;;6250783;22;20415;-85
2022/10/17 10:31:36;;;;;;;8.63;2.97;;;23.40;99.90;;;;;;6252427;22;20374;-85
2022/10/17 10:34:23;;;;;;;4.23;2.80;;;23.20;99.90;;;;;;6277708;22;20488;-85
2022/10/17 10:37:02;;;;;;;6.33;2.57;;;23.00;99.90;;;;;;6250885;22;20508;-85
2022/10/17 10:39:33;;;;;;;7.03;2.60;;;22.90;99.90;;;;;;6278803;22;20377;-85
2022/10/17 10:42:01;;;;;;;4.73;2.70;;;23.10;99.90;;;;;;6278562;22;20381;-85
2022/10/17 10:44:29;;;;;;;4.50;2.60;;;23.20;99.90;;;;;;6251910;22;20718;-85
2022/10/17 10:47:14;;;;;;;2.67;2.20;;;22.70;99.90;;;;;;6280528;22;20398;-85
2022/10/17 10:49:41;;;;;;;6.73;3.17;;;22.80;99.90;;;;;;6252953;22;20371;-87
2022/10/17 10:52:13;;;;;;;4.57;2.43;;;22.60;99.90;;;;;;6278983;22;20461;-85
2022/10/17 10:54:48;;;;;;;7.40;3.00;;;22.70;99.90;;;;;;6279129;22;20343;-85
2022/10/17 10:57:20;;;;;;;10.33;2.90;;;22.70;99.90;;;;;;6252271;22;20398;-86
2022/10/17 11:00:05;;;;;;;6.30;3.07;;;22.90;99.90;;;;;;6279715;22;20417;-86
2022/10/17 11:02:43;;;;;;;8.03;2.93;;;23.20;99.90;;;;;;6251146;22;20417;-86
2022/10/17 11:05:19;;;;;;;7.23;3.70;;;23.10;99.90;;;;;;6252508;22;20696;-86
2022/10/17 11:07:51;;;;;;;12.10;2.90;;;23.20;99.90;;;;;;6269542;22;20429;-86
2022/10/17 11:10:45;;;;;;;4.77;2.80;;;23.50;99.90;;;;;;6275500;22;20382;-86
2022/10/17 11:13:19;;;;;;;11.80;2.40;;;23.30;99.90;;;;;;6277073;22;20379;-85
2022/10/17 11:16:01;;;;;;;8.97;2.60;;;23.70;99.90;;;;;;6280231;22;20389;-86
2022/10/17 11:18:43;;;;;;;4.23;2.57;;;23.90;99.90;;;;;;6277171;22;20424;-86
2022/10/17 11:21:22;;;;;;;6.30;3.00;;;23.90;99.90;;;;;;6278847;22;20377;-85
2022/10/17 11:24:13;;;;;;;4.63;2.93;;;24.10;99.90;;;;;;6277102;22;20371;-86
2022/10/17 11:26:58;;;;;;;4.33;2.63;;;24.40;99.90;;;;;;6274565;22;20470;-87
2022/10/17 11:29:29;;;;;;;7.73;2.27;;;24.80;99.90;;;;;;6277804;22;20380;-86
2022/10/17 11:31:58;;;;;;;7.97;2.27;;;24.90;99.90;;;;;;6279480;22;20352;-87
2022/10/17 11:34:31;;;;;;;8.77;3.63;;;25.00;99.90;;;;;;6279107;22;20373;-86
2022/10/17 11:37:04;;;;;;;8.47;2.83;;;25.50;99.90;;;;;;6277847;22;20872;-86
2022/10/17 11:39:47;;;;;;;6.67;2.60;;;25.50;99.90;;;;;;6279215;22;20347;-86
2022/10/17 11:42:17;;;;;;;6.60;3.00;;;25.60;99.90;;;;;;6278215;22;20374;-86
2022/10/17 11:44:43;;;;;;;6.27;2.57;;;;;;;;;;6279111;22;20349;-86
2022/10/17 11:47:22;;;;;;;9.90;2.73;;;25.70;99.90;;;;;;6277768;22;20390;-86
2022/10/17 11:49:54;;;;;;;5.73;2.80;;;25.60;99.90;;;;;;6277940;22;20815;-86
2022/10/17 11:52:45;;;;;;;3.43;2.17;;;25.20;99.90;;;;;;6275014;22;20375;-86
2022/10/17 11:55:20;;;;;;;5.07;2.87;;;25.30;99.90;;;;;;6274441;22;20387;-86
2022/10/17 11:58:18;;;;;;;6.30;2.60;;;25.20;99.90;;;;;;6275481;22;20429;-86
2022/10/17 12:01:11;;;;;;;6.53;3.00;;;25.10;99.90;;;;;;6237704;22;20380;-86
2022/10/17 12:03:55;;;;;;;8.10;2.40;;;25.10;99.90;;;;;;6268007;22;20385;-86
2022/10/17 12:06:51;;;;;;;7.20;2.70;;;24.80;99.90;;;;;;6276226;22;20416;-86
2022/10/17 12:09:17;;;;;;;5.30;2.77;;;;;;;;;;6270490;22;20409;-85
2022/10/17 12:11:54;;;;;;;7.10;3.00;;;24.70;99.90;;;;;;6275549;22;20455;-86
2022/10/17 12:14:39;;;;;;;7.40;2.80;;;24.70;99.90;;;;;;6277183;22;20384;-87
2022/10/17 12:17:24;;;;;;;7.77;3.00;;;24.60;99.90;;;;;;6273473;22;20399;-86
2022/10/17 12:19:49;;;;;;;4.20;3.13;;;24.10;99.90;;;;;;6273219;22;20383;-86
2022/10/17 12:22:21;;;;;;;5.70;2.33;;;24.40;99.90;;;;;;6277680;22;20385;-87
2022/10/17 12:24:56;;;;;;;7.53;2.50;;;24.30;99.90;;;;;;6279015;22;20144;-86
2022/10/17 12:27:44;;;;;;;12.70;2.90;;;24.00;99.90;;;;;;6276581;22;20444;-86
2022/10/17 12:30:26;;;;;;;5.40;2.50;;;24.40;99.90;;;;;;6279562;22;20349;-87
2022/10/17 12:32:57;;;;;;;3.20;2.37;;;24.10;99.90;;;;;;6274518;22;20400;-86
2022/10/17 12:35:24;;;;;;;8.00;2.53;;;24.10;99.90;;;;;;6277507;22;20356;-86
2022/10/17 12:37:50;;;;;;;6.53;2.30;;;23.90;99.90;;;;;;6275332;22;20402;-86
2022/10/17 12:40:33;;;;;;;4.00;2.23;;;24.00;99.90;;;;;;6277602;22;20400;-86
2022/10/17 12:43:14;;;;;;;16.77;3.00;;;23.70;99.90;;;;;;6275641;22;20508;-86
2022/10/17 12:45:44;;;;;;;5.50;2.63;;;23.50;99.90;;;;;;6278373;22;20467;-87
2022/10/17 12:48:10;;;;;;;10.60;2.63;;;;;;;;;;6278095;22;20494;-86
2022/10/17 12:51:01;;;;;;;5.83;2.13;;;23.40;99.90;;;;;;6277223;22;20381;-86
2022/10/17 12:53:36;;;;;;;6.40;3.20;;;23.50;99.90;;;;;;6278069;22;20436;-86
2022/10/17 12:56:02;;;;;;;2.23;2.03;;;23.60;99.90;;;;;;6279595;22;20744;-86
2022/10/17 12:58:29;;;;;;;4.10;2.30;;;23.70;99.90;;;;;;6278851;22;20388;-83
2022/10/17 13:00:57;;;;;;;5.80;2.20;;;23.10;99.90;;;;;;6279330;22;20211;-86
2022/10/17 13:03:26;;;;;;;2.83;2.30;;;23.10;99.90;;;;;;6279715;22;20671;-87
2022/10/17 13:06:02;;;;;;;3.33;1.90;;;23.50;99.90;;;;;;6280214;22;20866;-84
2022/10/17 13:08:32;;;;;;;5.43;2.90;;;23.30;99.90;;;;;;6255380;22;20409;-83
2022/10/17 13:10:58;;;;;;;5.73;2.40;;;;;;;;;;6282232;22;20363;-83
2022/10/17 13:13:50;;;;;;;5.80;2.43;;;23.30;99.90;;;;;;6281571;22;20369;-83
2022/10/17 13:16:28;;;;;;;3.37;2.10;;;23.40;99.90;;;;;;6255533;22;20424;-82
2022/10/17 13:18:54;;;;;;;5.53;2.50;;;;;;;;;;6282450;22;20934;-84
2022/10/17 13:21:20;;;;;;;9.50;2.30;;;;;;;;;;6282414;22;20417;-83
2022/10/17 13:23:49;;;;;;;7.80;3.13;;;;;;;;;;6281856;22;20374;-83
2022/10/17 13:26:22;;;;;;;3.90;2.33;;;23.30;99.90;;;;;;6283041;22;20379;-84
2022/10/17 13:29:11;;;;;;;2.50;2.23;;;23.40;99.90;;;;;;6282649;22;20473;-83
2022/10/17 13:31:39;;;;;;;2.10;1.60;;;23.40;99.90;;;;;;6282878;22;20809;-84
2022/10/17 13:34:14;;;;;;;4.10;1.60;;;23.30;99.90;;;;;;6282630;22;20361;-83
2022/10/17 13:36:42;;;;;;;5.37;2.23;;;23.50;99.90;;;;;;6282486;22;20374;-83
2022/10/17 13:39:12;;;;;;;5.40;2.63;;;23.30;99.90;;;;;;6282242;22;20371;-84
2022/10/17 13:41:39;;;;;;;11.20;2.53;;;23.40;99.90;;;;;;6283771;22;20394;-84
2022/10/17 13:44:12;;;;;;;6.50;2.00;;;23.40;99.90;;;;;;6254882;22;20381;-83
2022/10/17 13:46:39;;;;;;;5.87;2.90;;;23.50;99.90;;;;;;6282516;22;20455;-84
2022/10/17 13:49:33;;;;;;;4.73;1.90;;;23.20;99.90;;;;;;6255657;22;20476;-84